createdAt,value
2023-01-07T00:02:17.848Z,3.04
2023-01-07T00:07:40.116Z,3.02
2023-01-07T00:13:02.338Z,3.03
2023-01-07T00:18:24.575Z,2.99
2023-01-07T00:23:49.191Z,3.01
2023-01-07T00:29:13.277Z,3.07
2023-01-07T00:34:35.538Z,3.14
2023-01-07T00:39:57.719Z,3.19
2023-01-07T00:45:21.024Z,3.19
2023-01-07T00:50:46.332Z,3.17
2023-01-07T00:56:09.207Z,3.18
2023-01-07T01:01:32.205Z,3.13
2023-01-07T01:06:54.523Z,3.16
2023-01-07T01:12:17.423Z,3.04
2023-01-07T01:17:40.837Z,2.95
2023-01-07T01:23:03.309Z,2.80
2023-01-07T01:28:25.557Z,2.80
2023-01-07T01:33:48.219Z,2.73
2023-01-07T01:39:10.629Z,2.29
2023-01-07T01:45:00.447Z,2.21
2023-01-07T01:50:42.448Z,2.11
2023-01-07T01:56:09.749Z,1.83
2023-01-07T02:01:32.772Z,1.82
2023-01-07T02:07:09.565Z,1.84
2023-01-07T02:12:54.536Z,1.73
2023-01-07T02:18:45.154Z,1.94
2023-01-07T02:24:53.940Z,1.97
2023-01-07T02:30:33.024Z,1.83
2023-01-07T02:36:06.205Z,1.96
2023-01-07T02:41:36.161Z,2.00
2023-01-07T02:47:33.453Z,1.99
2023-01-07T02:52:56.019Z,2.01
2023-01-07T02:59:00.975Z,2.03
2023-01-07T03:04:50.084Z,2.06
2023-01-07T03:10:39.104Z,2.13
2023-01-07T03:16:09.355Z,2.16
2023-01-07T03:21:36.258Z,2.20
2023-01-07T03:27:11.707Z,2.37
2023-01-07T03:32:50.355Z,2.24
2023-01-07T03:38:14.727Z,2.32
2023-01-07T03:43:38.582Z,2.33
2023-01-07T03:49:00.823Z,2.29
2023-01-07T04:00:02.155Z,2.33
2023-01-07T04:05:24.828Z,2.19
2023-01-07T04:10:47.567Z,2.19
2023-01-07T04:16:10.062Z,2.20
2023-01-07T04:21:32.290Z,2.25
2023-01-07T04:26:54.793Z,2.32
2023-01-07T04:32:17.034Z,2.36
2023-01-07T04:37:39.264Z,2.43
2023-01-07T04:43:01.545Z,2.49
2023-01-07T04:48:23.868Z,2.59
2023-01-07T04:53:46.146Z,2.64
2023-01-07T04:59:08.362Z,2.64
2023-01-07T05:04:30.719Z,2.70
2023-01-07T05:09:53.022Z,2.71
2023-01-07T05:15:16.196Z,2.71
2023-01-07T05:20:38.507Z,2.76
2023-01-07T05:26:01.512Z,2.76
2023-01-07T05:31:24.044Z,2.75
2023-01-07T05:36:46.366Z,2.76
2023-01-07T05:42:08.641Z,2.79
2023-01-07T05:47:31.157Z,2.87
2023-01-07T05:52:53.321Z,2.92
2023-01-07T05:58:15.719Z,2.96
2023-01-07T06:03:38.526Z,3.00
2023-01-07T06:09:00.902Z,3.02
2023-01-07T06:14:23.354Z,3.01
2023-01-07T06:19:45.592Z,3.02
2023-01-07T06:25:07.874Z,3.04
2023-01-07T06:30:30.874Z,3.07
2023-01-07T06:35:53.143Z,3.09
2023-01-07T06:41:15.578Z,3.12
2023-01-07T06:46:38.259Z,3.15
2023-01-07T06:52:00.695Z,3.18
2023-01-07T06:57:22.926Z,3.20
2023-01-07T07:02:46.494Z,3.16
2023-01-07T07:08:09.069Z,3.19
2023-01-07T07:13:31.280Z,3.26
2023-01-07T07:18:53.548Z,3.19
2023-01-07T07:24:17.033Z,3.21
2023-01-07T07:29:39.414Z,3.22
2023-01-07T07:35:02.189Z,3.21
2023-01-07T07:40:25.286Z,3.23
2023-01-07T07:45:49.781Z,3.29
2023-01-07T07:51:22.684Z,3.42
2023-01-07T07:56:45.646Z,3.30
2023-01-07T08:02:08.030Z,3.30
2023-01-07T08:07:32.090Z,3.35
2023-01-07T08:12:57.776Z,3.34
2023-01-07T08:18:24.011Z,3.37
2023-01-07T08:23:46.787Z,3.31
2023-01-07T08:29:09.119Z,3.29
2023-01-07T08:34:31.807Z,3.30
2023-01-07T08:39:54.311Z,3.24
2023-01-07T08:45:18.030Z,3.19
2023-01-07T08:50:41.640Z,3.12
2023-01-07T08:56:07.201Z,3.17
2023-01-07T09:01:32.489Z,3.20
2023-01-07T09:06:55.014Z,3.21
2023-01-07T09:12:18.041Z,3.33
2023-01-07T09:17:40.445Z,3.35
2023-01-07T09:23:02.641Z,3.44
2023-01-07T09:28:25.027Z,3.40
2023-01-07T09:33:47.499Z,3.42
2023-01-07T09:39:10.070Z,3.37
2023-01-07T09:44:52.502Z,3.29
2023-01-07T09:50:20.128Z,3.37
2023-01-07T09:56:11.316Z,3.32
2023-01-07T10:01:49.474Z,3.42
2023-01-07T10:07:39.329Z,3.44
2023-01-07T10:13:33.088Z,3.33
2023-01-07T10:19:14.285Z,3.36
2023-01-07T10:24:46.989Z,3.38
2023-01-07T10:30:24.695Z,3.65
2023-01-07T10:35:49.559Z,3.53
2023-01-07T10:41:16.668Z,3.50
2023-01-07T10:47:07.890Z,3.54
2023-01-07T10:52:57.503Z,3.56
2023-01-07T10:58:24.130Z,3.52
2023-01-07T11:03:48.106Z,3.43
2023-01-07T11:09:11.472Z,3.51
2023-01-07T11:14:37.524Z,3.48
2023-01-07T11:20:02.347Z,3.52
2023-01-07T11:25:42.979Z,3.53
2023-01-07T11:31:11.711Z,3.58
2023-01-07T11:36:45.565Z,3.55
2023-01-07T11:42:39.133Z,3.63
2023-01-07T11:48:15.211Z,3.60
2023-01-07T11:54:05.720Z,3.61
2023-01-07T11:59:36.031Z,3.66
2023-01-07T12:04:58.388Z,3.76
2023-01-07T12:10:32.097Z,3.76
2023-01-07T12:16:14.203Z,3.70
2023-01-07T12:21:50.197Z,3.64
2023-01-07T12:27:31.343Z,3.82
2023-01-07T12:33:31.443Z,3.72
2023-01-07T12:39:03.594Z,3.74
2023-01-07T12:44:34.160Z,3.76
2023-01-07T12:50:04.060Z,3.79
2023-01-07T12:55:39.245Z,3.84
2023-01-07T13:06:57.590Z,3.96
2023-01-07T13:18:27.603Z,3.97
2023-01-07T13:24:09.651Z,3.82
2023-01-07T13:30:11.180Z,3.85
2023-01-07T13:36:06.805Z,3.87
2023-01-07T13:41:40.553Z,3.88
2023-01-07T13:47:05.073Z,3.90
2023-01-07T13:52:41.049Z,3.92
2023-01-07T13:58:03.891Z,3.94
2023-01-07T14:04:04.383Z,3.94
2023-01-07T14:09:31.384Z,3.99
2023-01-07T14:15:10.720Z,4.02
2023-01-07T14:20:41.119Z,4.02
2023-01-07T14:26:25.175Z,4.02
2023-01-07T14:31:51.246Z,4.00
2023-01-07T14:37:30.372Z,4.00
2023-01-07T14:43:00.955Z,4.05
2023-01-07T14:48:39.712Z,4.09
2023-01-07T14:54:22.136Z,4.09
2023-01-07T14:59:55.429Z,4.12
2023-01-07T15:05:34.967Z,4.14
2023-01-07T15:11:17.413Z,4.14
2023-01-07T15:16:41.607Z,4.17
2023-01-07T15:22:12.458Z,4.20
2023-01-07T15:27:56.325Z,4.22
2023-01-07T15:33:39.459Z,4.36
2023-01-07T15:39:08.695Z,4.28
2023-01-07T15:44:49.659Z,4.31
2023-01-07T15:50:39.841Z,4.36
2023-01-07T15:56:15.233Z,4.37
2023-01-07T16:01:39.533Z,4.39
2023-01-07T16:07:02.589Z,4.45
2023-01-07T16:12:43.836Z,4.56
2023-01-07T16:18:16.798Z,4.57
2023-01-07T16:23:46.377Z,4.61
2023-01-07T16:29:19.355Z,4.65
2023-01-07T16:34:49.702Z,4.68
2023-01-07T16:40:12.648Z,4.70
2023-01-07T16:45:51.952Z,4.72
2023-01-07T16:51:35.621Z,4.74
2023-01-07T16:57:03.663Z,4.76
2023-01-07T17:02:48.102Z,4.81
2023-01-07T17:08:18.983Z,4.83
2023-01-07T17:13:46.924Z,4.84
2023-01-07T17:19:31.307Z,4.85
2023-01-07T17:24:58.807Z,4.87
2023-01-07T17:30:25.398Z,4.86
2023-01-07T17:35:54.529Z,4.88
2023-01-07T17:41:36.331Z,4.89
2023-01-07T17:46:59.183Z,4.88
2023-01-07T17:52:22.215Z,4.87
2023-01-07T17:57:45.089Z,4.89
2023-01-07T18:03:10.362Z,4.90
2023-01-07T18:08:34.245Z,4.94
2023-01-07T18:13:56.951Z,4.95
2023-01-07T18:19:19.721Z,4.98
2023-01-07T18:24:42.120Z,5.01
2023-01-07T18:30:04.400Z,4.99
2023-01-07T18:35:27.323Z,4.99
2023-01-07T18:40:49.987Z,4.97
2023-01-07T18:46:17.591Z,4.98
2023-01-07T18:51:39.771Z,4.99
2023-01-07T18:57:02.156Z,5.01
2023-01-07T19:02:28.841Z,5.03
2023-01-07T19:07:53.461Z,5.03
2023-01-07T19:13:15.853Z,5.06
2023-01-07T19:18:40.360Z,5.06
2023-01-07T19:24:04.798Z,5.12
2023-01-07T19:29:27.519Z,5.15
2023-01-07T19:34:51.623Z,5.15
2023-01-07T19:40:17.960Z,5.15
2023-01-07T19:45:40.539Z,5.15
2023-01-07T19:51:07.764Z,5.13
2023-01-07T19:56:31.800Z,5.16
2023-01-07T20:01:55.408Z,5.18
2023-01-07T20:07:18.123Z,5.17
2023-01-07T20:12:40.412Z,5.18
2023-01-07T20:18:02.814Z,5.19
2023-01-07T20:23:26.067Z,5.20
2023-01-07T20:28:48.609Z,5.24
2023-01-07T20:34:12.906Z,5.28
2023-01-07T20:39:36.236Z,5.27
2023-01-07T20:44:58.788Z,5.24
2023-01-07T20:50:21.219Z,5.23
2023-01-07T20:55:43.609Z,5.25
2023-01-07T21:01:07.852Z,5.24
2023-01-07T21:06:32.564Z,5.25
2023-01-07T21:11:54.905Z,5.24
2023-01-07T21:17:17.222Z,5.23
2023-01-07T21:22:39.506Z,5.22
2023-01-07T21:28:03.548Z,5.21
2023-01-07T21:33:25.964Z,5.20
2023-01-07T21:38:50.201Z,5.20
2023-01-07T21:44:13.135Z,5.20
2023-01-07T21:49:36.366Z,5.19
2023-01-07T21:54:59.390Z,5.20
2023-01-07T22:00:23.177Z,5.18
2023-01-07T22:05:45.629Z,5.17
2023-01-07T22:11:08.515Z,5.16
2023-01-07T22:16:32.605Z,5.11
2023-01-07T22:21:54.938Z,5.05
2023-01-07T22:27:17.650Z,4.99
2023-01-07T22:32:39.821Z,4.92
2023-01-07T22:38:02.695Z,4.87
2023-01-07T22:43:31.190Z,4.84
2023-01-07T22:48:54.323Z,4.78
2023-01-07T22:54:18.188Z,4.74
2023-01-07T22:59:40.414Z,4.71
2023-01-07T23:05:02.585Z,4.69
2023-01-07T23:10:25.055Z,4.66
2023-01-07T23:15:48.003Z,4.64
2023-01-07T23:21:11.143Z,4.60
2023-01-07T23:26:34.050Z,4.56
2023-01-07T23:31:56.365Z,4.46
2023-01-07T23:37:18.719Z,4.43
2023-01-07T23:42:41.665Z,4.39
2023-01-07T23:48:06.882Z,4.30
2023-01-07T23:53:29.791Z,4.26
2023-01-07T23:58:52.365Z,4.24
